Time,TemperatureF,DewpointF,PressureIn,WindDirection,WindDirectionDegrees,WindSpeedMPH,WindSpeedGustMPH,Humidity,HourlyPrecipIn,Conditions,Clouds,dailyrainin,SoftwareType,DateUTC
2013-06-03 00:00:00,42.0,12.0,-100.00,NW,326,12.0,20.0,29,-99.99,,,-99.99,,2013-06-03 07:00:00,
2013-06-03 00:52:00,42.0,12.0,-100.00,NW,326,12.0,20.0,29,-99.99,,,-99.99,,2013-06-03 07:52:00,
2013-06-03 01:00:00,42.0,11.0,-100.00,NNW,327,8.0,20.0,28,-99.99,,,-99.99,,2013-06-03 08:00:00,
2013-06-03 01:52:00,42.0,11.0,-100.00,NNW,327,8.0,20.0,28,-99.99,,,-99.99,,2013-06-03 08:52:00,
2013-06-03 02:00:00,42.0,13.0,-100.00,NNW,336,7.0,16.0,30,-99.99,,,-99.99,,2013-06-03 09:00:00,
2013-06-03 02:53:00,42.0,13.0,-100.00,NNW,336,7.0,16.0,30,-99.99,,,-99.99,,2013-06-03 09:53:00,
2013-06-03 03:00:00,41.0,11.0,-100.00,NNW,343,3.0,16.0,29,-99.99,,,-99.99,,2013-06-03 10:00:00,
2013-06-03 03:52:00,41.0,11.0,-100.00,NNW,343,3.0,16.0,29,-99.99,,,-99.99,,2013-06-03 10:52:00,
2013-06-03 04:00:00,40.0,5.0,-100.00,NNW,329,8.0,15.0,23,-99.99,,,-99.99,,2013-06-03 11:00:00,
2013-06-03 04:52:00,40.0,5.0,-100.00,NNW,329,8.0,15.0,23,-99.99,,,-99.99,,2013-06-03 11:52:00,
2013-06-03 05:00:00,41.0,13.0,-100.00,NNW,347,12.0,18.0,32,-99.99,,,-99.99,,2013-06-03 12:00:00,
2013-06-03 05:52:00,41.0,13.0,-100.00,NNW,347,12.0,18.0,32,-99.99,,,-99.99,,2013-06-03 12:52:00,
2013-06-03 07:00:00,45.0,17.0,-100.00,WNW,289,10.0,16.0,32,-99.99,,,-99.99,,2013-06-03 14:00:00,
2013-06-03 07:52:00,45.0,17.0,-100.00,WNW,289,10.0,16.0,32,-99.99,,,-99.99,,2013-06-03 14:52:00,
2013-06-03 08:00:00,47.0,14.0,-100.00,North,356,9.0,17.0,26,-99.99,,,-99.99,,2013-06-03 15:00:00,
2013-06-03 08:53:00,47.0,14.0,-100.00,North,356,9.0,17.0,26,-99.99,,,-99.99,,2013-06-03 15:53:00,
2013-06-03 09:00:00,49.0,20.0,-100.00,North,355,3.0,13.0,32,-99.99,,,-99.99,,2013-06-03 16:00:00,
2013-06-03 09:53:00,49.0,20.0,-100.00,North,355,3.0,13.0,32,-99.99,,,-99.99,,2013-06-03 16:53:00,
2013-06-03 10:00:00,49.0,30.0,-100.00,NNE,12,1.0,3.0,48,-99.99,,,-99.99,,2013-06-03 17:00:00,
2013-06-03 10:52:00,49.0,30.0,-100.00,NNE,12,1.0,3.0,48,-99.99,,,-99.99,,2013-06-03 17:52:00,
2013-06-03 11:00:00,48.0,34.0,-100.00,North,356,1.0,3.0,57,-99.99,,,-99.99,,2013-06-03 18:00:00,
2013-06-03 11:52:00,48.0,34.0,-100.00,North,356,1.0,3.0,57,-99.99,,,-99.99,,2013-06-03 18:52:00,
2013-06-03 12:00:00,48.0,35.0,-100.00,North,355,2.0,5.0,60,-99.99,,,-99.99,,2013-06-03 19:00:00,
2013-06-03 12:52:00,48.0,35.0,-100.00,North,355,2.0,5.0,60,-99.99,,,-99.99,,2013-06-03 19:52:00,
2013-06-03 13:00:00,48.0,34.0,-100.00,NNE,30,6.0,9.0,57,-99.99,,,-99.99,,2013-06-03 20:00:00,
2013-06-03 13:52:00,48.0,34.0,-100.00,NNE,30,6.0,9.0,57,-99.99,,,-99.99,,2013-06-03 20:52:00,
2013-06-03 14:00:00,48.0,31.0,-100.00,WNW,303,3.0,12.0,51,-99.99,,,-99.99,,2013-06-03 21:00:00,
2013-06-03 14:53:00,48.0,31.0,-100.00,WNW,303,3.0,12.0,51,-99.99,,,-99.99,,2013-06-03 21:53:00,
2013-06-03 15:00:00,52.0,36.0,-100.00,NW,305,3.0,12.0,54,-99.99,,,-99.99,,2013-06-03 22:00:00,
2013-06-03 15:53:00,52.0,36.0,-100.00,NW,305,3.0,12.0,54,-99.99,,,-99.99,,2013-06-03 22:53:00,
2013-06-03 16:00:00,50.0,32.0,-100.00,NNE,29,8.0,12.0,50,-99.99,,,-99.99,,2013-06-03 23:00:00,
2013-06-03 16:52:00,50.0,32.0,-100.00,NNE,29,8.0,12.0,50,-99.99,,,-99.99,,2013-06-03 23:52:00,
2013-06-03 17:00:00,51.0,31.0,-100.00,North,349,8.0,12.0,46,-99.99,,,-99.99,,2013-06-04 00:00:00,
2013-06-03 17:52:00,51.0,31.0,-100.00,North,349,8.0,12.0,46,-99.99,,,-99.99,,2013-06-04 00:52:00,
2013-06-03 18:00:00,47.0,24.0,-100.00,ENE,76,12.0,17.0,40,-99.99,,,-99.99,,2013-06-04 01:00:00,
2013-06-03 18:52:00,47.0,24.0,-100.00,ENE,76,12.0,17.0,40,-99.99,,,-99.99,,2013-06-04 01:52:00,
2013-06-03 19:00:00,45.0,22.0,-100.00,North,352,15.0,20.0,39,-99.99,,,-99.99,,2013-06-04 02:00:00,
2013-06-03 19:52:00,45.0,22.0,-100.00,North,352,15.0,20.0,39,-99.99,,,-99.99,,2013-06-04 02:52:00,
2013-06-03 20:00:00,43.0,17.0,-100.00,NW,311,17.0,21.0,35,-99.99,,,-99.99,,2013-06-04 03:00:00,
2013-06-03 20:53:00,43.0,17.0,-100.00,NW,311,17.0,21.0,35,-99.99,,,-99.99,,2013-06-04 03:53:00,
2013-06-03 21:00:00,42.0,16.0,-100.00,NW,325,15.0,20.0,35,-99.99,,,-99.99,,2013-06-04 04:00:00,
2013-06-03 21:53:00,42.0,16.0,-100.00,NW,325,15.0,20.0,35,-99.99,,,-99.99,,2013-06-04 04:53:00,
2013-06-03 22:00:00,47.0,13.0,-100.00,NNW,329,12.0,18.0,25,-99.99,,,-99.99,,2013-06-04 05:00:00,
2013-06-03 22:52:00,47.0,13.0,-100.00,NNW,329,12.0,18.0,25,-99.99,,,-99.99,,2013-06-04 05:52:00,
2013-06-03 23:00:00,44.0,10.0,-100.00,NW,321,6.0,15.0,25,-99.99,,,-99.99,,2013-06-04 06:00:00,
2013-06-03 23:52:00,44.0,10.0,-100.00,NW,321,6.0,15.0,25,-99.99,,,-99.99,,2013-06-04 06:52:00,